Helena, Ohio
Current Conditions -  °F | °C
As of 1:53 PM on Monday 20 Oct 2014 (Local Time) from KTDZ Reporting Station
Light Rain Light Rain  
Wind Chill: 54°   Ceiling: 5000
Heat Index: 54°   Visibility: 7mi
Dew Point: 48°   Wind: 16mph
Humidity: 80%   Direction: 210°SSW
Pressure: 29.82"   Gusts: 22mph
Location:  41.34°N, 83.29°W
Report Text: KTDZ 201753Z AUTO 21014G19KT 7SM -RA FEW040 BKN050 OVC070 12/09 A2982 RMK AO2 RAB27 SLP099 P0004 60004 T01220089 10139 20094 58015 TSNO
Loading
Personal Weather Stations






























Interactive Weather Map
Tropical Storm Tracking
New forecast layout! Learn more

10-Day Weather Forecast

Advertisements
Track Severe Weather on mobile